createdAt,value
2023-04-03T00:00:40.566Z,21.92
2023-04-03T00:02:42.108Z,21.94
2023-04-03T00:04:43.542Z,21.94
2023-04-03T00:06:44.884Z,21.97
2023-04-03T00:08:46.209Z,22.00
2023-04-03T00:10:47.538Z,22.05
2023-04-03T00:12:48.846Z,22.10
2023-04-03T00:14:50.222Z,22.13
2023-04-03T00:16:51.613Z,22.15
2023-04-03T00:18:53.043Z,22.18
2023-04-03T00:20:54.335Z,22.19
2023-04-03T00:22:55.767Z,22.17
2023-04-03T00:24:57.066Z,22.19
2023-04-03T00:26:58.389Z,22.19
2023-04-03T00:28:59.690Z,22.15
2023-04-03T00:31:01.306Z,22.14
2023-04-03T00:33:02.792Z,22.11
2023-04-03T00:35:04.186Z,22.11
2023-04-03T00:37:05.940Z,22.11
2023-04-03T00:39:07.575Z,22.11
2023-04-03T00:41:08.997Z,22.11
2023-04-03T00:43:10.292Z,22.13
2023-04-03T00:45:11.580Z,22.12
2023-04-03T00:47:12.929Z,22.10
2023-04-03T00:49:14.224Z,22.08
2023-04-03T00:51:15.780Z,22.06
2023-04-03T00:53:17.079Z,22.05
2023-04-03T00:55:18.480Z,22.06
2023-04-03T00:57:19.815Z,22.01
2023-04-03T00:59:23.203Z,21.98
2023-04-03T01:01:24.596Z,21.94
2023-04-03T01:03:26.320Z,21.92
2023-04-03T01:05:27.645Z,21.89
2023-04-03T01:07:28.951Z,21.87
2023-04-03T01:09:30.287Z,21.86
2023-04-03T01:11:31.700Z,21.86
2023-04-03T01:13:33.221Z,21.86
2023-04-03T01:15:36.116Z,21.86
2023-04-03T01:17:37.589Z,21.85
2023-04-03T01:19:39.380Z,21.87
2023-04-03T01:21:41.270Z,21.91
2023-04-03T01:23:42.604Z,21.92
2023-04-03T01:25:44.100Z,21.93
2023-04-03T01:27:45.431Z,21.92
2023-04-03T01:29:46.856Z,21.93
2023-04-03T01:31:48.219Z,21.94
2023-04-03T01:33:49.591Z,21.94
2023-04-03T01:35:50.998Z,21.94
2023-04-03T01:37:52.358Z,21.95
2023-04-03T01:39:53.660Z,21.95
2023-04-03T01:41:54.981Z,21.97
2023-04-03T01:43:56.403Z,21.98
2023-04-03T01:45:57.793Z,22.02
2023-04-03T01:47:59.242Z,22.07
2023-04-03T01:50:00.601Z,22.13
2023-04-03T01:52:02.201Z,22.16
2023-04-03T01:54:03.529Z,22.17
2023-04-03T01:56:04.845Z,22.17
2023-04-03T01:58:06.205Z,22.17
2023-04-03T02:00:08.716Z,22.18
2023-04-03T02:02:10.062Z,22.21
2023-04-03T02:04:11.509Z,22.23
2023-04-03T02:06:13.051Z,22.22
2023-04-03T02:08:14.775Z,22.20
2023-04-03T02:10:16.142Z,22.18
2023-04-03T02:12:17.593Z,22.19
2023-04-03T02:14:18.926Z,22.18
2023-04-03T02:16:20.252Z,22.17
2023-04-03T02:18:21.599Z,22.17
2023-04-03T02:20:22.941Z,22.18
2023-04-03T02:22:24.270Z,22.18
2023-04-03T02:24:25.607Z,22.16
2023-04-03T02:26:27.618Z,22.16
2023-04-03T02:28:29.191Z,22.16
2023-04-03T02:30:30.636Z,22.18
2023-04-03T02:32:32.002Z,22.20
2023-04-03T02:34:33.308Z,22.20
2023-04-03T02:36:34.710Z,22.20
2023-04-03T02:38:36.276Z,22.20
2023-04-03T02:40:37.884Z,22.25
2023-04-03T02:42:39.362Z,22.20
2023-04-03T02:44:40.738Z,22.08
2023-04-03T02:46:42.203Z,22.00
2023-04-03T02:48:43.519Z,21.93
2023-04-03T02:50:44.839Z,22.01
2023-04-03T02:52:46.224Z,22.10
2023-04-03T02:54:47.516Z,22.00
2023-04-03T02:56:48.846Z,21.92
2023-04-03T02:58:50.503Z,21.86
2023-04-03T03:00:51.808Z,21.80
2023-04-03T03:02:53.139Z,21.78
2023-04-03T03:04:54.571Z,21.68
2023-04-03T03:06:55.977Z,21.55
2023-04-03T03:08:57.404Z,21.49
2023-04-03T03:10:58.704Z,21.43
2023-04-03T03:13:00.020Z,21.39
2023-04-03T03:15:02.212Z,21.37
2023-04-03T03:17:03.516Z,21.38
2023-04-03T03:19:04.815Z,21.37
2023-04-03T03:21:06.212Z,21.35
2023-04-03T03:23:07.519Z,21.34
2023-04-03T03:25:08.856Z,21.33
2023-04-03T03:27:10.462Z,21.33
2023-04-03T03:29:11.816Z,21.30
2023-04-03T03:31:13.344Z,21.28
2023-04-03T03:33:14.768Z,21.24
2023-04-03T03:35:16.346Z,21.19
2023-04-03T03:37:17.746Z,21.14
2023-04-03T03:39:19.066Z,21.09
2023-04-03T03:41:20.410Z,21.04
2023-04-03T03:43:21.923Z,20.99
2023-04-03T03:45:23.288Z,20.94
2023-04-03T03:47:24.638Z,20.88
2023-04-03T03:49:25.990Z,20.82
2023-04-03T03:51:27.311Z,20.77
2023-04-03T03:53:28.612Z,20.73
2023-04-03T03:55:29.944Z,20.69
2023-04-03T03:57:31.541Z,20.66
2023-04-03T03:59:33.029Z,20.61
2023-04-03T04:01:34.376Z,20.59
2023-04-03T04:03:35.901Z,20.54
2023-04-03T04:05:38.016Z,20.50
2023-04-03T04:07:39.642Z,20.45
2023-04-03T04:09:41.039Z,20.41
2023-04-03T04:11:42.427Z,20.38
2023-04-03T04:13:43.871Z,20.34
2023-04-03T04:15:45.311Z,20.30
2023-04-03T04:17:46.627Z,20.27
2023-04-03T04:19:48.148Z,20.24
2023-04-03T04:21:49.514Z,20.24
2023-04-03T04:23:50.975Z,20.28
2023-04-03T04:25:52.287Z,20.40
2023-04-03T04:27:53.616Z,20.57
2023-04-03T04:29:54.949Z,20.75
2023-04-03T04:31:56.391Z,20.90
2023-04-03T04:33:57.733Z,21.06
2023-04-03T04:35:59.073Z,21.19
2023-04-03T04:38:00.924Z,21.29
2023-04-03T04:40:02.913Z,21.35
2023-04-03T04:42:04.324Z,21.43
2023-04-03T04:44:05.631Z,21.50
2023-04-03T04:46:07.121Z,21.53
2023-04-03T04:48:08.510Z,21.60
2023-04-03T04:50:09.898Z,21.63
2023-04-03T04:52:11.208Z,21.66
2023-04-03T04:54:12.591Z,21.68
2023-04-03T04:56:13.887Z,21.67
2023-04-03T04:58:15.386Z,21.70
2023-04-03T05:00:16.811Z,21.74
2023-04-03T05:02:18.167Z,21.77
2023-04-03T05:04:19.558Z,21.72
2023-04-03T05:06:20.957Z,21.70
2023-04-03T05:08:22.290Z,21.60
2023-04-03T05:10:23.606Z,21.51
2023-04-03T05:12:24.907Z,21.43
2023-04-03T05:14:26.279Z,21.38
2023-04-03T05:16:27.617Z,21.32
2023-04-03T05:18:28.940Z,21.29
2023-04-03T05:20:30.329Z,21.22
2023-04-03T05:22:31.653Z,21.14
2023-04-03T05:24:32.956Z,21.07
2023-04-03T05:26:34.297Z,20.98
2023-04-03T05:28:35.699Z,20.92
2023-04-03T05:30:37.040Z,20.88
2023-04-03T05:32:38.467Z,20.81
2023-04-03T05:34:39.919Z,20.77
2023-04-03T05:36:41.245Z,20.72
2023-04-03T05:38:42.805Z,20.68
2023-04-03T05:40:44.208Z,20.63
2023-04-03T05:42:45.568Z,20.58
2023-04-03T05:44:48.210Z,20.55
2023-04-03T05:46:49.549Z,20.51
2023-04-03T05:48:51.052Z,20.47
2023-04-03T05:50:52.913Z,20.45
2023-04-03T05:52:54.692Z,20.44
2023-04-03T05:54:56.153Z,20.45
2023-04-03T05:56:57.497Z,20.48
2023-04-03T05:58:58.827Z,20.52
2023-04-03T06:01:00.358Z,20.55
2023-04-03T06:03:02.276Z,20.59
2023-04-03T06:05:03.920Z,20.65
2023-04-03T06:07:05.271Z,20.76
2023-04-03T06:09:06.593Z,20.88
2023-04-03T06:11:09.698Z,21.03
2023-04-03T06:13:10.995Z,21.15
2023-04-03T06:15:12.768Z,21.28
2023-04-03T06:17:14.489Z,21.38
2023-04-03T06:19:16.652Z,21.46
2023-04-03T06:21:17.967Z,21.49
2023-04-03T06:23:19.286Z,21.59
2023-04-03T06:25:20.640Z,21.62
2023-04-03T06:27:21.955Z,21.63
2023-04-03T06:29:23.454Z,21.64
2023-04-03T06:31:25.124Z,21.63
2023-04-03T06:33:27.150Z,21.61
2023-04-03T06:35:29.567Z,21.57
2023-04-03T06:37:31.567Z,21.49
2023-04-03T06:39:33.555Z,21.42
2023-04-03T06:41:36.003Z,21.35
2023-04-03T06:43:38.383Z,21.24
2023-04-03T06:45:39.927Z,21.16
2023-04-03T06:47:41.504Z,21.14
2023-04-03T06:49:42.844Z,21.08
2023-04-03T06:51:44.195Z,21.00
2023-04-03T06:53:45.798Z,20.93
2023-04-03T06:55:48.254Z,20.83
2023-04-03T06:57:49.583Z,20.78
2023-04-03T06:59:51.192Z,20.71
2023-04-03T07:01:52.793Z,20.64
2023-04-03T07:03:54.194Z,20.60
2023-04-03T07:05:56.384Z,19.69
2023-04-03T07:07:57.809Z,20.50
2023-04-03T07:09:59.122Z,20.46
2023-04-03T07:12:00.483Z,20.43
2023-04-03T07:14:01.861Z,20.40
2023-04-03T07:16:04.609Z,20.38
2023-04-03T07:18:07.080Z,20.38
2023-04-03T07:20:08.586Z,20.38
2023-04-03T07:22:10.420Z,20.42
2023-04-03T07:24:15.107Z,20.45
2023-04-03T07:26:17.959Z,20.48
2023-04-03T07:28:22.257Z,20.53
2023-04-03T07:30:24.090Z,20.60
2023-04-03T07:32:25.971Z,20.66
2023-04-03T07:34:27.267Z,20.75
2023-04-03T07:36:28.955Z,20.88
2023-04-03T07:38:30.295Z,21.04
2023-04-03T07:40:31.931Z,21.15
2023-04-03T07:42:33.320Z,21.27
2023-04-03T07:44:34.832Z,21.33
2023-04-03T07:46:36.160Z,21.42
2023-04-03T07:48:37.505Z,21.49
2023-04-03T07:50:38.890Z,21.56
2023-04-03T07:52:40.462Z,21.57
2023-04-03T07:54:41.811Z,21.59
2023-04-03T07:56:43.893Z,21.60
2023-04-03T07:58:45.259Z,21.60
2023-04-03T08:00:46.614Z,21.60
2023-04-03T08:02:52.709Z,21.57
2023-04-03T08:04:54.471Z,21.51
2023-04-03T08:06:56.143Z,21.46
2023-04-03T08:08:57.429Z,21.35
2023-04-03T08:10:58.867Z,21.28
2023-04-03T08:13:00.404Z,21.22
2023-04-03T08:15:02.303Z,21.12
2023-04-03T08:17:05.550Z,21.02
2023-04-03T08:19:15.141Z,20.97
2023-04-03T08:21:20.408Z,20.90
2023-04-03T08:23:22.006Z,20.85
2023-04-03T08:25:23.386Z,20.80
2023-04-03T08:27:24.731Z,20.75
2023-04-03T08:29:27.291Z,20.69
2023-04-03T08:31:28.729Z,20.66
2023-04-03T08:33:30.084Z,20.59
2023-04-03T08:35:31.480Z,20.60
2023-04-03T08:37:32.913Z,20.56
2023-04-03T08:39:34.201Z,20.52
2023-04-03T08:41:36.298Z,20.48
2023-04-03T08:43:37.592Z,20.47
2023-04-03T08:45:39.231Z,20.44
2023-04-03T08:47:41.066Z,20.45
2023-04-03T08:49:48.118Z,20.51
2023-04-03T08:51:49.705Z,20.55
2023-04-03T08:53:51.042Z,20.68
2023-04-03T08:55:52.378Z,20.77
2023-04-03T08:57:54.132Z,20.80
2023-04-03T08:59:55.425Z,20.82
2023-04-03T09:01:56.800Z,20.89
2023-04-03T09:03:58.211Z,20.98
2023-04-03T09:05:59.559Z,21.08
2023-04-03T09:08:02.135Z,21.20
2023-04-03T09:10:04.186Z,21.35
2023-04-03T09:12:10.141Z,21.44
2023-04-03T09:14:11.439Z,21.50
2023-04-03T09:16:12.758Z,21.50
2023-04-03T09:18:14.643Z,21.62
2023-04-03T09:20:17.226Z,21.69
2023-04-03T09:22:20.260Z,21.71
2023-04-03T09:24:21.582Z,21.73
2023-04-03T09:26:22.883Z,21.73
2023-04-03T09:28:24.203Z,21.70
2023-04-03T09:30:25.868Z,21.67
2023-04-03T09:32:27.316Z,21.61
2023-04-03T09:34:28.611Z,21.57
2023-04-03T09:36:29.937Z,21.52
2023-04-03T09:38:32.316Z,21.49
2023-04-03T09:40:36.344Z,21.44
2023-04-03T09:42:37.904Z,21.37
2023-04-03T09:44:39.195Z,21.27
2023-04-03T09:46:40.790Z,21.17
2023-04-03T09:48:42.158Z,21.07
2023-04-03T09:50:43.664Z,21.00
2023-04-03T09:52:44.992Z,20.97
2023-04-03T09:54:46.396Z,20.90
2023-04-03T09:56:47.731Z,20.83
2023-04-03T09:58:51.106Z,20.77
2023-04-03T10:00:52.826Z,20.76
2023-04-03T10:02:54.172Z,20.68
2023-04-03T10:05:08.384Z,20.63
2023-04-03T10:07:11.048Z,20.56
2023-04-03T10:09:12.354Z,20.52
2023-04-03T10:11:14.915Z,20.49
2023-04-03T10:13:21.074Z,20.49
2023-04-03T10:15:23.062Z,20.49
2023-04-03T10:17:24.921Z,20.52
2023-04-03T10:19:26.293Z,20.54
2023-04-03T10:21:28.422Z,20.62
2023-04-03T10:23:29.765Z,20.70
2023-04-03T10:25:31.456Z,20.80
2023-04-03T10:27:32.811Z,20.94
2023-04-03T10:29:34.133Z,21.05
2023-04-03T10:31:35.488Z,21.13
2023-04-03T10:33:40.229Z,21.22
2023-04-03T10:35:41.631Z,21.34
2023-04-03T10:37:42.958Z,21.40
2023-04-03T10:39:44.314Z,21.43
2023-04-03T10:41:45.859Z,21.43
2023-04-03T10:43:47.763Z,21.48
2023-04-03T10:45:49.108Z,21.51
2023-04-03T10:47:50.699Z,21.53
2023-04-03T10:49:59.332Z,21.58
2023-04-03T10:52:02.210Z,21.55
2023-04-03T10:54:03.505Z,21.51
2023-04-03T10:56:04.802Z,21.52
2023-04-03T10:58:06.205Z,21.49
2023-04-03T11:00:10.334Z,21.52
2023-04-03T11:02:12.316Z,21.52
2023-04-03T11:04:13.774Z,21.46
2023-04-03T11:06:15.785Z,21.40
2023-04-03T11:08:17.158Z,21.33
2023-04-03T11:10:18.682Z,21.26
2023-04-03T11:12:19.985Z,21.15
2023-04-03T11:14:21.310Z,21.08
2023-04-03T11:16:22.658Z,21.00
2023-04-03T11:18:23.996Z,20.93
2023-04-03T11:20:28.633Z,20.85
2023-04-03T11:22:30.188Z,20.80
2023-04-03T11:24:32.017Z,20.73
2023-04-03T11:26:33.980Z,20.67
2023-04-03T11:28:35.315Z,20.59
2023-04-03T11:30:36.662Z,20.54
2023-04-03T11:32:38.070Z,20.49
2023-04-03T11:34:41.497Z,20.45
2023-04-03T11:36:42.893Z,20.43
2023-04-03T11:38:44.460Z,20.42
2023-04-03T11:40:45.949Z,20.43
2023-04-03T11:42:47.323Z,20.44
2023-04-03T11:44:48.638Z,20.48
2023-04-03T11:46:49.972Z,20.48
2023-04-03T11:48:51.434Z,20.53
2023-04-03T11:50:53.062Z,20.65
2023-04-03T11:52:54.427Z,20.74
2023-04-03T11:54:55.774Z,20.84
2023-04-03T11:56:57.097Z,20.95
2023-04-03T11:58:58.423Z,21.04
2023-04-03T12:00:59.769Z,21.09
2023-04-03T12:03:01.237Z,21.18
2023-04-03T12:05:02.663Z,21.21
2023-04-03T12:07:05.285Z,21.28
2023-04-03T12:09:07.520Z,21.33
2023-04-03T12:11:08.984Z,21.39
2023-04-03T12:13:10.314Z,21.42
2023-04-03T12:15:11.657Z,21.45
2023-04-03T12:17:12.984Z,21.48
2023-04-03T12:19:14.344Z,21.49
2023-04-03T12:21:19.388Z,21.52
2023-04-03T12:23:20.696Z,21.54
2023-04-03T12:25:21.996Z,21.51
2023-04-03T12:27:23.422Z,21.46
2023-04-03T12:29:24.824Z,21.36
2023-04-03T12:31:26.165Z,21.28
2023-04-03T12:33:27.537Z,21.21
2023-04-03T12:35:29.075Z,21.13
2023-04-03T12:37:30.486Z,21.07
2023-04-03T12:39:31.825Z,21.03
2023-04-03T12:41:33.151Z,20.98
2023-04-03T12:43:34.481Z,20.91
2023-04-03T12:45:36.268Z,19.12
2023-04-03T12:47:39.165Z,19.11
2023-04-03T12:49:40.788Z,19.70
2023-04-03T12:51:42.123Z,20.02
2023-04-03T12:53:43.880Z,20.18
2023-04-03T12:55:45.452Z,20.25
2023-04-03T12:57:46.830Z,20.28
2023-04-03T12:59:48.274Z,20.29
2023-04-03T13:01:49.608Z,20.29
2023-04-03T13:03:51.059Z,20.25
2023-04-03T13:05:52.455Z,20.23
2023-04-03T13:07:53.792Z,20.22
2023-04-03T13:09:55.084Z,20.22
2023-04-03T13:11:56.510Z,20.29
2023-04-03T13:13:57.855Z,20.39
2023-04-03T13:15:59.185Z,20.52
2023-04-03T13:18:00.621Z,20.69
2023-04-03T13:20:02.089Z,20.84
2023-04-03T13:22:03.961Z,21.05
2023-04-03T13:24:14.935Z,21.09
2023-04-03T13:26:17.245Z,21.12
2023-04-03T13:28:18.787Z,21.20
2023-04-03T13:30:20.116Z,21.40
2023-04-03T13:32:21.445Z,21.36
2023-04-03T13:34:23.703Z,21.36
2023-04-03T13:36:25.036Z,21.41
2023-04-03T13:38:26.383Z,21.44
2023-04-03T13:40:38.143Z,21.71
2023-04-03T13:42:47.148Z,22.00
2023-04-03T13:44:49.820Z,21.91
2023-04-03T13:46:51.350Z,22.09
2023-04-03T13:48:52.698Z,22.19
2023-04-03T13:50:54.001Z,21.92
2023-04-03T13:52:55.443Z,21.70
2023-04-03T13:54:56.791Z,21.61
2023-04-03T13:56:58.277Z,21.53
2023-04-03T13:58:59.917Z,21.47
2023-04-03T14:01:01.520Z,21.39
2023-04-03T14:03:02.910Z,21.25
2023-04-03T14:05:04.959Z,21.16
2023-04-03T14:07:06.295Z,21.12
2023-04-03T14:09:07.583Z,21.10
2023-04-03T14:11:08.884Z,21.42
2023-04-03T14:13:10.399Z,21.44
2023-04-03T14:15:11.742Z,21.20
2023-04-03T14:17:13.115Z,21.21
2023-04-03T14:19:26.767Z,20.68
2023-04-03T14:21:28.104Z,21.41
2023-04-03T14:23:29.393Z,21.57
2023-04-03T14:25:30.727Z,21.81
2023-04-03T14:27:32.666Z,21.76
2023-04-03T14:29:34.032Z,21.60
2023-04-03T14:31:35.488Z,22.04
2023-04-03T14:33:37.609Z,21.76
2023-04-03T14:35:38.944Z,21.58
2023-04-03T14:37:40.840Z,22.09
2023-04-03T14:39:42.436Z,21.75
2023-04-03T14:41:43.763Z,21.80
2023-04-03T14:43:45.106Z,22.07
2023-04-03T14:45:46.453Z,21.66
2023-04-03T14:47:48.543Z,21.24
2023-04-03T14:49:49.966Z,21.20
2023-04-03T14:51:51.587Z,21.19
2023-04-03T14:53:53.265Z,21.16
2023-04-03T14:55:54.869Z,21.27
2023-04-03T14:57:56.200Z,21.45
2023-04-03T14:59:57.613Z,21.60
2023-04-03T15:01:59.005Z,21.52
2023-04-03T15:04:00.498Z,21.61
2023-04-03T15:06:02.168Z,21.71
2023-04-03T15:08:03.478Z,21.78
2023-04-03T15:10:04.788Z,21.80
2023-04-03T15:12:06.129Z,21.86
2023-04-03T15:14:07.467Z,21.95
2023-04-03T15:16:08.794Z,22.01
2023-04-03T15:18:13.213Z,21.99
2023-04-03T15:20:14.530Z,22.06
2023-04-03T15:22:15.842Z,22.13
2023-04-03T15:24:17.161Z,22.14
2023-04-03T15:26:18.471Z,22.12
2023-04-03T15:28:19.934Z,22.10
2023-04-03T15:30:21.890Z,21.96
2023-04-03T15:32:23.259Z,21.73
2023-04-03T15:34:30.171Z,21.65
2023-04-03T15:36:35.016Z,21.57
2023-04-03T15:38:38.424Z,21.49
2023-04-03T15:40:39.860Z,21.46
2023-04-03T15:42:41.319Z,21.43
2023-04-03T15:44:42.639Z,21.45
2023-04-03T15:46:43.958Z,21.43
2023-04-03T15:48:45.906Z,21.44
2023-04-03T15:50:47.241Z,21.45
2023-04-03T15:52:49.261Z,21.43
2023-04-03T15:54:50.617Z,21.44
2023-04-03T15:56:51.995Z,21.44
2023-04-03T15:58:53.363Z,21.38
2023-04-03T16:00:54.693Z,21.36
2023-04-03T16:02:56.335Z,21.34
2023-04-03T16:04:57.865Z,21.36
2023-04-03T16:06:59.204Z,21.35
2023-04-03T16:09:02.241Z,21.36
2023-04-03T16:11:03.566Z,21.36
2023-04-03T16:13:04.864Z,21.38
2023-04-03T16:15:06.170Z,21.44
2023-04-03T16:17:07.516Z,21.47
2023-04-03T16:19:08.850Z,21.47
2023-04-03T16:21:10.333Z,21.50
2023-04-03T16:23:11.659Z,21.55
2023-04-03T16:25:15.841Z,21.63
2023-04-03T16:27:19.813Z,21.71
2023-04-03T16:29:21.149Z,21.75
2023-04-03T16:31:25.346Z,21.99
2023-04-03T16:33:26.685Z,22.34
2023-04-03T16:35:33.775Z,22.50
2023-04-03T16:37:37.912Z,22.78
2023-04-03T16:39:39.252Z,22.86
2023-04-03T16:41:46.739Z,22.97
2023-04-03T16:43:48.036Z,23.02
2023-04-03T16:45:49.488Z,22.63
2023-04-03T16:47:51.149Z,22.27
2023-04-03T16:49:52.515Z,22.07
2023-04-03T16:51:53.874Z,21.98
2023-04-03T16:53:55.273Z,21.84
2023-04-03T16:55:56.611Z,21.90
2023-04-03T16:57:57.913Z,21.85
2023-04-03T16:59:59.256Z,21.58
2023-04-03T17:02:00.566Z,21.41
2023-04-03T17:04:02.320Z,21.86
2023-04-03T17:06:03.707Z,22.38
2023-04-03T17:08:05.038Z,22.48
2023-04-03T17:10:06.476Z,22.86
2023-04-03T17:12:07.857Z,22.68
2023-04-03T17:14:09.448Z,22.66
2023-04-03T17:16:10.893Z,22.73
2023-04-03T17:18:12.214Z,23.41
2023-04-03T17:20:13.507Z,22.95
2023-04-03T17:22:16.507Z,22.80
2023-04-03T17:24:17.810Z,22.86
2023-04-03T17:26:19.100Z,23.32
2023-04-03T17:28:20.455Z,23.03
2023-04-03T17:30:21.861Z,22.90
2023-04-03T17:32:29.656Z,23.23
2023-04-03T17:34:30.966Z,23.36
2023-04-03T17:36:32.275Z,23.84
2023-04-03T17:38:34.042Z,23.41
2023-04-03T17:40:35.482Z,22.98
2023-04-03T17:42:39.651Z,22.55
2023-04-03T17:44:41.250Z,22.90
2023-04-03T17:46:45.445Z,23.12
2023-04-03T17:48:49.492Z,22.90
2023-04-03T17:50:50.968Z,22.86
2023-04-03T17:52:52.334Z,23.67
2023-04-03T17:54:59.732Z,23.46
2023-04-03T17:57:03.492Z,23.10
2023-04-03T17:59:04.893Z,23.23
2023-04-03T18:01:06.296Z,23.27
2023-04-03T18:03:07.656Z,23.10
2023-04-03T18:05:10.117Z,23.37
2023-04-03T18:07:12.019Z,23.18
2023-04-03T18:11:16.203Z,22.62
2023-04-03T18:13:17.517Z,22.70
2023-04-03T18:15:18.873Z,22.72
2023-04-03T18:17:20.305Z,23.22
2023-04-03T18:19:23.802Z,23.13
2023-04-03T18:21:25.399Z,23.11
2023-04-03T18:23:32.683Z,23.03
2023-04-03T18:25:34.072Z,22.98
2023-04-03T18:27:38.291Z,22.95
2023-04-03T18:29:39.663Z,22.97
2023-04-03T18:31:41.243Z,22.98
2023-04-03T18:33:42.667Z,22.98
2023-04-03T18:35:44.238Z,22.97
2023-04-03T18:37:45.949Z,22.97
2023-04-03T18:39:47.250Z,22.98
2023-04-03T18:41:48.606Z,22.99
2023-04-03T18:43:49.905Z,23.49
2023-04-03T18:45:51.325Z,23.52
2023-04-03T18:47:58.563Z,23.13
2023-04-03T18:49:59.914Z,22.97
2023-04-03T18:52:02.233Z,23.31
2023-04-03T18:54:04.244Z,23.76
2023-04-03T18:56:06.621Z,23.76
2023-04-03T18:58:08.562Z,23.38
2023-04-03T19:00:10.287Z,22.75
2023-04-03T19:02:12.796Z,22.45
2023-04-03T19:04:16.912Z,22.32
2023-04-03T19:06:18.240Z,22.24
2023-04-03T19:08:19.556Z,22.18
2023-04-03T19:10:20.942Z,22.16
2023-04-03T19:12:22.359Z,22.13
2023-04-03T19:14:23.660Z,22.14
2023-04-03T19:16:25.064Z,22.13
2023-04-03T19:18:26.486Z,22.10
2023-04-03T19:20:27.797Z,22.73
2023-04-03T19:22:30.449Z,22.97
2023-04-03T19:24:31.907Z,22.68
2023-04-03T19:26:33.201Z,22.75
2023-04-03T19:28:34.501Z,22.82
2023-04-03T19:30:35.799Z,22.86
2023-04-03T19:32:37.147Z,22.89
2023-04-03T19:34:38.457Z,22.89
2023-04-03T19:36:40.103Z,22.95
2023-04-03T19:38:44.393Z,23.00
2023-04-03T19:40:45.769Z,23.28
2023-04-03T19:42:50.179Z,23.64
2023-04-03T19:44:51.495Z,23.40
2023-04-03T19:46:52.879Z,23.25
2023-04-03T19:48:54.208Z,23.45
2023-04-03T19:50:55.539Z,23.32
2023-04-03T19:52:56.876Z,23.30
2023-04-03T19:54:58.233Z,23.63
2023-04-03T19:56:59.978Z,23.63
2023-04-03T19:59:01.330Z,23.68
2023-04-03T20:01:02.658Z,23.73
2023-04-03T20:03:04.016Z,23.55
2023-04-03T20:05:06.007Z,23.49
2023-04-03T20:07:07.400Z,23.42
2023-04-03T20:09:08.735Z,22.56
2023-04-03T20:11:10.520Z,23.42
2023-04-03T20:13:12.192Z,23.40
2023-04-03T20:15:13.557Z,22.99
2023-04-03T20:17:15.211Z,23.06
2023-04-03T20:19:16.862Z,23.19
2023-04-03T20:21:18.811Z,23.19
2023-04-03T20:23:20.251Z,23.34
2023-04-03T20:25:43.829Z,23.24
2023-04-03T20:27:43.487Z,23.11
2023-04-03T20:29:44.786Z,23.11
2023-04-03T20:31:47.327Z,23.06
2023-04-03T20:33:48.720Z,23.55
2023-04-03T20:35:54.378Z,23.22
2023-04-03T20:37:58.403Z,18.52
2023-04-03T20:40:00.373Z,16.99
2023-04-03T20:42:03.424Z,17.87
2023-04-03T20:44:04.724Z,19.57
2023-04-03T20:46:06.024Z,20.39
2023-04-03T20:48:07.408Z,20.78
2023-04-03T20:50:09.569Z,20.95
2023-04-03T20:52:11.301Z,21.06
2023-04-03T20:54:12.906Z,21.21
2023-04-03T20:56:14.280Z,21.32
2023-04-03T20:58:15.626Z,21.38
2023-04-03T21:00:20.046Z,21.45
2023-04-03T21:02:21.581Z,21.50
2023-04-03T21:04:23.200Z,21.53
2023-04-03T21:06:24.494Z,21.55
2023-04-03T21:08:25.789Z,21.55
2023-04-03T21:10:28.400Z,21.55
2023-04-03T21:12:29.771Z,21.55
2023-04-03T21:14:31.738Z,21.58
2023-04-03T21:16:33.659Z,21.58
2023-04-03T21:18:35.854Z,21.61
2023-04-03T21:20:37.346Z,21.65
2023-04-03T21:22:43.211Z,21.67
2023-04-03T21:24:48.393Z,21.70
2023-04-03T21:26:49.698Z,21.74
2023-04-03T21:28:51.299Z,21.77
2023-04-03T21:30:52.608Z,21.79
2023-04-03T21:32:54.072Z,21.86
2023-04-03T21:34:55.556Z,21.86
2023-04-03T21:36:57.410Z,21.83
2023-04-03T21:38:58.902Z,21.78
2023-04-03T21:41:00.894Z,21.76
2023-04-03T21:43:02.481Z,21.74
2023-04-03T21:45:04.014Z,21.72
2023-04-03T21:47:05.443Z,21.67
2023-04-03T21:49:07.641Z,21.60
2023-04-03T21:51:08.980Z,21.54
2023-04-03T21:53:10.315Z,21.48
2023-04-03T21:55:11.642Z,21.43
2023-04-03T21:57:13.431Z,21.38
2023-04-03T21:59:14.991Z,21.31
2023-04-03T22:01:16.622Z,21.35
2023-04-03T22:03:18.069Z,21.29
2023-04-03T22:05:19.489Z,21.21
2023-04-03T22:07:20.810Z,21.13
2023-04-03T22:09:22.178Z,21.06
2023-04-03T22:11:27.150Z,21.01
2023-04-03T22:13:28.544Z,20.95
2023-04-03T22:15:30.231Z,20.92
2023-04-03T22:17:31.639Z,20.89
2023-04-03T22:19:33.055Z,20.84
2023-04-03T22:21:34.359Z,20.84
2023-04-03T22:23:35.807Z,20.83
2023-04-03T22:25:37.172Z,20.87
2023-04-03T22:27:38.474Z,20.91
2023-04-03T22:29:39.851Z,20.97
2023-04-03T22:31:42.398Z,21.06
2023-04-03T22:33:43.787Z,21.15
2023-04-03T22:35:45.458Z,21.18
2023-04-03T22:37:47.112Z,21.22
2023-04-03T22:39:48.508Z,21.27
2023-04-03T22:41:50.406Z,21.31
2023-04-03T22:43:52.000Z,21.34
2023-04-03T22:45:53.338Z,21.40
2023-04-03T22:47:58.690Z,21.46
2023-04-03T22:50:00.110Z,21.55
2023-04-03T22:52:01.408Z,21.60
2023-04-03T22:54:02.710Z,21.66
2023-04-03T22:56:04.764Z,21.73
2023-04-03T22:58:06.632Z,21.72
2023-04-03T23:00:08.021Z,21.74
2023-04-03T23:02:09.378Z,21.75
2023-04-03T23:04:10.975Z,21.74
2023-04-03T23:06:13.451Z,21.76
2023-04-03T23:08:14.784Z,21.75
2023-04-03T23:10:16.322Z,21.72
2023-04-03T23:12:17.622Z,21.69
2023-04-03T23:14:18.935Z,21.67
2023-04-03T23:16:20.322Z,21.61
2023-04-03T23:18:21.783Z,21.54
2023-04-03T23:20:23.122Z,21.51
2023-04-03T23:22:24.459Z,21.48
2023-04-03T23:24:25.996Z,21.43
2023-04-03T23:26:27.366Z,21.36
2023-04-03T23:28:28.693Z,21.29
2023-04-03T23:30:29.997Z,21.24
2023-04-03T23:32:31.395Z,21.19
2023-04-03T23:34:32.804Z,21.13
2023-04-03T23:36:34.144Z,21.07
2023-04-03T23:38:35.483Z,21.03
2023-04-03T23:40:36.915Z,20.99
2023-04-03T23:42:38.274Z,20.95
2023-04-03T23:44:39.576Z,20.91
2023-04-03T23:46:40.877Z,20.89
2023-04-03T23:48:42.494Z,20.87
2023-04-03T23:50:43.788Z,20.83
2023-04-03T23:52:45.116Z,20.80
2023-04-03T23:54:46.802Z,20.80
2023-04-03T23:56:48.146Z,20.82
2023-04-03T23:58:49.535Z,20.84
